Time;durP1;ratioP1;P1;durP2;ratioP2;P2;SDS_P1;SDS_P2;PMS_P1;PMS_P2;Temp;Humidity;BMP_temperature;BMP_pressure;BME280_temperature;BME280_humidity;BME280_pressure;Samples;Min_cycle;Max_cycle;Signal;HPM_P1;HPM_P2
2021/10/09 00:12:35;;;;;;;0.70;0.70;;;9.10;99.90;;;;;;4237609;33;20152;-69
2021/10/09 00:26:35;;;;;;;2.15;1.55;;;9.00;99.90;;;;;;4176802;34;20475;-69
2021/10/09 00:30:16;;;;;;;0.95;0.77;;;8.90;99.90;;;;;;4201548;34;20129;-69
2021/10/09 00:36:53;;;;;;;1.58;1.42;;;8.80;99.90;;;;;;4225526;33;20114;-69
2021/10/09 01:06:07;;;;;;;2.40;1.55;;;8.60;99.90;;;;;;4252357;33;20327;-71
2021/10/09 01:09:45;;;;;;;;;;;;;;;;;;;;;
2021/10/09 01:16:52;;;;;;;0.88;0.80;;;8.50;99.90;;;;;;4231101;33;20148;-69
2021/10/09 01:19:41;;;;;;;1.12;1.02;;;8.50;99.90;;;;;;4238671;33;20062;-69
2021/10/09 01:25:46;;;;;;;1.73;1.05;;;8.40;99.90;;;;;;4244436;33;20077;-69
2021/10/09 01:29:00;;;;;;;0.82;0.77;;;8.30;99.90;;;;;;4281191;33;20157;-69
2021/10/09 01:34:32;;;;;;;0.65;0.65;;;8.30;99.90;;;;;;4318165;33;20071;-68
2021/10/09 01:38:00;;;;;;;0.85;0.85;;;8.30;99.90;;;;;;4324104;33;20542;-69
2021/10/09 01:43:39;;;;;;;0.77;0.77;;;8.20;99.90;;;;;;4337225;33;20097;-70
2021/10/09 01:50:16;;;;;;;0.80;0.80;;;8.10;99.90;;;;;;4380738;32;20114;-71
2021/10/09 01:53:47;;;;;;;;;;;;;;;;;;;;;
2021/10/09 02:00:18;;;;;;;2.15;1.70;;;8.00;99.90;;;;;;4310214;33;19964;-69
2021/10/09 02:03:23;;;;;;;11.57;3.78;;;8.00;99.90;;;;;;4320158;33;20605;-71
2021/10/09 02:06:48;;;;;;;;;;;;;;;;;;;;;
2021/10/09 02:10:46;;;;;;;1.23;0.93;;;8.00;99.90;;;;;;4284524;33;20138;-70
2021/10/09 02:14:19;;;;;;;8.52;2.58;;;8.00;99.90;;;;;;4253009;33;20089;-70
2021/10/09 02:31:13;;;;;;;;;;;;;;;;;;;;;
2021/10/09 02:34:27;;;;;;;10.55;1.80;;;8.00;99.90;;;;;;4250352;33;20081;-69
2021/10/09 02:41:20;;;;;;;4.00;1.35;;;7.90;99.90;;;;;;4339168;33;20113;-70
2021/10/09 02:44:14;;;;;;;;;;;;;;;;;;;;;
2021/10/09 02:47:21;;;;;;;;;;;;;;;;;;;;;
2021/10/09 02:57:13;;;;;;;6.55;1.05;;;7.70;99.90;;;;;;4309000;33;20133;-69
2021/10/09 03:00:44;;;;;;;;;;;;;;;;;;;;;
2021/10/09 03:04:13;;;;;;;0.73;0.55;;;7.70;99.90;;;;;;4288745;33;20091;-69
2021/10/09 03:07:04;;;;;;;0.93;0.93;;;7.60;99.90;;;;;;4314927;33;20084;-69
2021/10/09 03:10:34;;;;;;;;;;;;;;;;;;;;;
2021/10/09 03:20:10;;;;;;;2.03;1.20;;;7.60;99.90;;;;;;4338380;33;20116;-71
2021/10/09 03:22:36;;;;;;;2.60;1.12;;;7.50;99.90;;;;;;4345514;32;20067;-70
2021/10/09 03:25:29;;;;;;;2.50;1.17;;;7.50;99.90;;;;;;4383011;32;20077;-69
2021/10/09 03:28:11;;;;;;;1.00;0.90;;;7.50;99.90;;;;;;4383050;32;20093;-71
2021/10/09 03:30:58;;;;;;;1.35;1.15;;;7.60;99.90;;;;;;4382670;32;20095;-69
2021/10/09 03:33:52;;;;;;;2.67;1.52;;;7.50;99.90;;;;;;4388157;32;20090;-67
2021/10/09 03:39:50;;;;;;;0.60;0.60;;;7.40;99.90;;;;;;4414536;32;20090;-69
2021/10/09 03:42:21;;;;;;;7.87;1.98;;;7.30;99.90;;;;;;4408408;32;20070;-68
2021/10/09 03:55:45;;;;;;;;;;;7.30;99.90;;;;;;4323515;33;20187;-69
2021/10/09 03:58:10;;;;;;;1.50;1.23;;;7.20;99.90;;;;;;4339702;32;19958;-69
2021/10/09 04:00:36;;;;;;;5.22;3.12;;;7.30;99.90;;;;;;4399439;32;20070;-68
2021/10/09 04:03:21;;;;;;;;;;;;;;;;;;;;;
2021/10/09 04:05:48;;;;;;;4.90;2.10;;;7.20;99.90;;;;;;4398445;32;20078;-70
2021/10/09 04:08:24;;;;;;;1.02;0.70;;;7.20;99.90;;;;;;4399638;32;20079;-70
2021/10/09 04:10:56;;;;;;;1.80;1.52;;;7.20;99.90;;;;;;4399399;32;20079;-70
2021/10/09 04:13:29;;;;;;;1.65;1.45;;;7.20;99.90;;;;;;4400398;32;20454;-70
2021/10/09 04:16:15;;;;;;;0.75;0.68;;;7.20;99.90;;;;;;4400143;32;20116;-69
2021/10/09 04:19:06;;;;;;;1.02;1.00;;;7.20;99.90;;;;;;4399104;32;20081;-72
2021/10/09 04:21:38;;;;;;;1.37;1.17;;;7.10;99.90;;;;;;4393128;32;20442;-69
2021/10/09 04:24:04;;;;;;;2.33;1.23;;;7.10;99.90;;;;;;4398743;32;20508;-68
2021/10/09 04:26:39;;;;;;;;;;;;;;;;;;;;;
2021/10/09 04:36:28;;;;;;;2.90;1.58;;;7.00;99.90;;;;;;4359268;32;20131;-68
2021/10/09 04:42:59;;;;;;;0.57;0.55;;;6.90;99.90;;;;;;4288083;33;20474;-69
2021/10/09 04:45:40;;;;;;;0.57;0.57;;;6.80;99.90;;;;;;4348067;33;20440;-68
2021/10/09 04:49:10;;;;;;;9.88;2.42;;;6.90;99.90;;;;;;4352517;33;20184;-69
2021/10/09 04:52:06;;;;;;;3.45;1.52;;;6.90;99.90;;;;;;4308592;33;20622;-67
2021/10/09 04:55:02;;;;;;;;;;;;;;;;;;;;;
2021/10/09 04:57:38;;;;;;;0.85;0.85;;;6.80;99.90;;;;;;4287998;33;20169;-68
2021/10/09 05:03:28;;;;;;;1.37;1.27;;;6.80;99.90;;;;;;4322779;33;20139;-68
2021/10/09 05:05:54;;;;;;;1.40;1.05;;;6.70;99.90;;;;;;4340117;33;20140;-69
2021/10/09 05:08:46;;;;;;;14.38;1.17;;;6.70;99.90;;;;;;4359928;32;20510;-68
2021/10/09 05:11:21;;;;;;;7.50;1.48;;;6.70;99.90;;;;;;4369224;32;20615;-68
2021/10/09 05:14:34;;;;;;;22.42;3.10;;;6.70;99.90;;;;;;4371966;32;20075;-68
2021/10/09 05:17:56;;;;;;;1.90;0.95;;;6.60;99.90;;;;;;4406443;32;20078;-66
2021/10/09 05:20:27;;;;;;;1.17;1.02;;;6.70;99.90;;;;;;4394584;32;20074;-70
2021/10/09 05:23:11;;;;;;;1.27;1.17;;;6.60;99.90;;;;;;4405001;32;20094;-70
2021/10/09 05:25:37;;;;;;;2.37;0.77;;;6.60;99.90;;;;;;4406358;32;20070;-69
2021/10/09 05:28:44;;;;;;;0.43;0.43;;;6.50;99.90;;;;;;4416406;32;20328;-68
2021/10/09 05:31:20;;;;;;;5.82;1.33;;;6.50;99.90;;;;;;4416614;32;20077;-68
2021/10/09 05:34:58;;;;;;;1.65;0.98;;;6.50;99.90;;;;;;4416305;32;20125;-68
2021/10/09 05:38:01;;;;;;;0.80;0.80;;;6.50;99.90;;;;;;4354442;33;20088;-70
2021/10/09 05:41:02;;;;;;;;;;;;;;;;;;;;;
2021/10/09 05:44:07;;;;;;;1.87;1.40;;;6.50;99.90;;;;;;4348232;33;20071;-68
2021/10/09 05:47:32;;;;;;;2.92;1.52;;;6.50;99.90;;;;;;4328384;33;20593;-70
2021/10/09 05:51:00;;;;;;;3.10;0.85;;;6.50;99.90;;;;;;4354661;33;20096;-69
2021/10/09 05:57:22;;;;;;;;;;;;;;;;;;;;;
2021/10/09 06:42:43;;;;;;;3.33;1.80;;;7.20;99.90;;;;;;4369060;32;20147;-68
2021/10/09 07:01:37;;;;;;;1.40;0.98;;;7.40;99.90;;;;;;4306716;33;20096;-69
2021/10/09 07:05:00;;;;;;;;;;;;;;;;;;;;;
2021/10/09 07:11:53;;;;;;;0.95;0.95;;;7.60;99.90;;;;;;4304529;33;20124;-68
2021/10/09 07:24:44;;;;;;;3.45;0.93;;;7.90;99.90;;;;;;4362884;32;20088;-68
2021/10/09 07:27:53;;;;;;;;;;;;;;;;;;;;;
2021/10/09 07:30:37;;;;;;;;;;;;;;;;;;;;;
2021/10/09 07:40:25;;;;;;;4.80;1.20;;;8.40;99.90;;;;;;4359902;32;20129;-68
2021/10/09 07:52:34;;;;;;;1.17;0.65;;;8.90;99.90;;;;;;4306643;33;20163;-68
2021/10/09 08:02:18;;;;;;;1.05;0.90;;;9.40;99.90;;;;;;4298200;33;20092;-69
2021/10/09 08:05:34;;;;;;;;;;;;;;;;;;;;;
2021/10/09 08:08:46;;;;;;;1.83;1.52;;;9.60;99.90;;;;;;4325886;33;20083;-69
2021/10/09 08:11:12;;;;;;;1.90;0.93;;;9.70;99.90;;;;;;4327803;33;20108;-69
2021/10/09 08:13:59;;;;;;;1.45;1.20;;;9.80;99.90;;;;;;4325996;33;20939;-69
2021/10/09 08:16:48;;;;;;;5.28;2.37;;;10.00;99.90;;;;;;4319117;33;20367;-69
2021/10/09 08:19:37;;;;;;;1.87;1.00;;;10.20;99.90;;;;;;4360670;32;20102;-69
2021/10/09 08:25:54;;;;;;;;;;;;;;;;;;;;;
2021/10/09 08:36:12;;;;;;;;;;;;;;;;;;;;;
2021/10/09 08:38:50;;;;;;;1.50;1.20;;;10.70;99.90;;;;;;4356294;32;20086;-69
2021/10/09 08:41:21;;;;;;;1.75;0.88;;;10.70;99.90;;;;;;4409797;32;20132;-68
2021/10/09 08:44:36;;;;;;;0.30;0.30;;;10.80;99.90;;;;;;4400890;32;20642;-70
2021/10/09 08:47:33;;;;;;;0.70;0.70;;;10.90;99.90;;;;;;4358672;32;20706;-70
2021/10/09 08:54:17;;;;;;;;;;;;;;;;;;;;;
2021/10/09 08:58:02;;;;;;;;;;;;;;;;;;;;;
2021/10/09 09:32:16;;;;;;;1.67;0.68;;;12.10;99.60;;;;;;4222185;34;20178;-69
2021/10/09 09:53:21;;;;;;;;;;;;;;;;;;;;;
2021/10/09 10:44:19;;;;;;;;;;;;;;;;;;;;;
2021/10/09 10:57:35;;;;;;;;;;;14.00;98.40;;;;;;4226750;33;20147;-70
2021/10/09 11:01:10;;;;;;;1.70;0.75;;;14.20;97.40;;;;;;4244804;33;20384;-69
2021/10/09 11:04:08;;;;;;;0.95;0.75;;;14.40;97.70;;;;;;4263212;33;20157;-70
2021/10/09 11:17:19;;;;;;;;;;;14.80;96.50;;;;;;4251161;33;20702;-72
2021/10/09 11:24:47;;;;;;;1.87;1.15;;;15.00;94.60;;;;;;4243959;33;20073;-69
2021/10/09 11:27:15;;;;;;;7.60;0.73;;;15.10;94.60;;;;;;4274525;33;20159;-72
2021/10/09 11:29:42;;;;;;;0.70;0.70;;;15.20;94.30;;;;;;4330877;33;20087;-69
2021/10/09 11:32:10;;;;;;;0.90;0.90;;;15.40;93.90;;;;;;4398234;32;20089;-69
2021/10/09 11:34:53;;;;;;;21.05;1.23;;;15.60;93.40;;;;;;4400885;32;20607;-69
2021/10/09 11:37:19;;;;;;;0.62;0.60;;;15.80;93.70;;;;;;4400835;32;20089;-69
2021/10/09 11:39:52;;;;;;;0.40;0.40;;;15.90;93.60;;;;;;4401412;32;20126;-69
2021/10/09 11:42:24;;;;;;;1.45;1.05;;;16.00;92.80;;;;;;4404947;32;20513;-69
2021/10/09 11:45:15;;;;;;;2.05;0.95;;;16.30;92.90;;;;;;4406386;32;20074;-69
2021/10/09 11:53:53;;;;;;;0.52;0.52;;;17.60;91.60;;;;;;4403809;32;20576;-69
2021/10/09 11:56:08;;;;;;;0.40;0.40;;;18.10;91.30;;;;;;4400513;32;20149;-70
2021/10/09 11:58:57;;;;;;;0.40;0.40;;;18.30;89.00;;;;;;4406279;32;20070;-70
2021/10/09 12:01:41;;;;;;;0.68;0.68;;;18.70;87.90;;;;;;4393319;32;20112;-70
2021/10/09 12:04:16;;;;;;;0.45;0.45;;;18.90;87.00;;;;;;4407273;32;20409;-70
2021/10/09 12:06:44;;;;;;;1.17;0.90;;;18.80;83.30;;;;;;4398625;32;20133;-70
2021/10/09 12:09:11;;;;;;;0.30;0.30;;;19.00;81.70;;;;;;4403415;32;20085;-70
2021/10/09 12:11:37;;;;;;;0.30;0.30;;;19.20;82.30;;;;;;4409876;32;20069;-69
2021/10/09 12:14:10;;;;;;;0.30;0.30;;;19.90;80.80;;;;;;4406828;32;20124;-70
2021/10/09 12:16:41;;;;;;;8.18;1.65;;;20.30;78.40;;;;;;4398676;32;20142;-70
2021/10/09 12:19:09;;;;;;;1.05;0.57;;;20.30;77.10;;;;;;4400831;32;20077;-70
2021/10/09 12:21:39;;;;;;;0.30;0.30;;;20.20;76.90;;;;;;4409808;32;20062;-70
2021/10/09 12:24:16;;;;;;;0.50;0.50;;;20.40;77.20;;;;;;4404189;32;20075;-70
2021/10/09 12:26:42;;;;;;;0.40;0.40;;;20.60;77.50;;;;;;4399592;32;20085;-70
2021/10/09 12:29:12;;;;;;;0.22;0.22;;;20.80;77.50;;;;;;4401193;32;20542;-70
2021/10/09 12:31:43;;;;;;;0.30;0.30;;;20.80;76.80;;;;;;4399430;32;20077;-70
2021/10/09 12:34:30;;;;;;;0.52;0.47;;;21.20;76.00;;;;;;4390666;32;20058;-70
2021/10/09 12:37:18;;;;;;;0.40;0.40;;;20.90;76.30;;;;;;4398276;32;20137;-70
2021/10/09 12:39:46;;;;;;;0.40;0.40;;;20.70;75.90;;;;;;4403701;32;20534;-70
2021/10/09 12:42:13;;;;;;;0.93;0.60;;;20.90;78.00;;;;;;4404129;32;20093;-70
2021/10/09 12:44:39;;;;;;;7.80;0.30;;;21.10;78.10;;;;;;4392352;32;20081;-70
2021/10/09 12:47:05;;;;;;;0.20;0.20;;;21.10;78.80;;;;;;4402323;32;20074;-70
2021/10/09 12:49:31;;;;;;;0.30;0.30;;;20.70;77.50;;;;;;4397142;32;20070;-70
2021/10/09 12:54:54;;;;;;;;;;;;;;;;;;;;;
2021/10/09 12:58:15;;;;;;;1.65;0.85;;;19.00;81.60;;;;;;4399813;32;20311;-70
2021/10/09 13:04:40;;;;;;;0.90;0.73;;;18.10;84.10;;;;;;4349135;33;20117;-70
2021/10/09 13:07:53;;;;;;;;;;;;;;;;;;;;;
2021/10/09 13:11:01;;;;;;;0.40;0.40;;;17.50;84.20;;;;;;4319748;33;20191;-70
2021/10/09 13:17:44;;;;;;;4.75;1.08;;;17.40;83.30;;;;;;4336583;33;20136;-70
2021/10/09 13:24:40;;;;;;;0.60;0.60;;;16.90;85.00;;;;;;4347407;32;20087;-70
2021/10/09 13:28:29;;;;;;;;;;;;;;;;;;;;;
2021/10/09 13:31:24;;;;;;;1.30;0.77;;;17.00;84.20;;;;;;4248084;33;20097;-70
2021/10/09 13:40:26;;;;;;;;;;;16.90;82.90;;;;;;4254412;33;20138;-69
2021/10/09 13:43:12;;;;;;;1.25;1.05;;;17.00;84.00;;;;;;4303455;33;20281;-72
2021/10/09 13:50:00;;;;;;;;;;;;;;;;;;;;;
2021/10/09 13:56:00;;;;;;;0.40;0.40;;;16.80;86.10;;;;;;4240532;33;20090;-70
2021/10/09 13:59:08;;;;;;;0.62;0.62;;;16.60;87.00;;;;;;4246212;33;20426;-71
2021/10/09 14:01:53;;;;;;;0.45;0.45;;;16.40;85.10;;;;;;4273016;33;20085;-69
2021/10/09 14:10:54;;;;;;;1.48;0.90;;;16.50;85.80;;;;;;4289893;33;20085;-69
2021/10/09 14:27:46;;;;;;;;;;;;;;;;;;;;;
2021/10/09 14:34:30;;;;;;;0.32;0.32;;;16.00;85.80;;;;;;4264747;33;20211;-70
2021/10/09 15:01:45;;;;;;;0.73;0.73;;;15.90;86.90;;;;;;4257721;33;20233;-70
2021/10/09 15:26:25;;;;;;;0.50;0.50;;;15.40;87.50;;;;;;4277705;33;20089;-69
2021/10/09 15:30:07;;;;;;;;;;;;;;;;;;;;;
2021/10/09 15:33:32;;;;;;;0.30;0.30;;;15.30;89.50;;;;;;4245422;33;20080;-70
2021/10/09 15:36:56;;;;;;;0.80;0.80;;;15.30;88.40;;;;;;4228933;33;20440;-68
2021/10/09 15:42:59;;;;;;;1.65;0.90;;;15.20;88.30;;;;;;4180902;34;20607;-70
2021/10/09 15:46:13;;;;;;;;;;;;;;;;;;;;;
2021/10/09 15:49:31;;;;;;;0.73;0.55;;;15.10;89.00;;;;;;4167181;34;20087;-70
2021/10/09 15:58:39;;;;;;;;;;;;;;;;;;;;;
2021/10/09 16:02:04;;;;;;;0.50;0.50;;;14.70;90.70;;;;;;4277654;33;20157;-71
2021/10/09 16:05:08;;;;;;;;;;;;;;;;;;;;;
2021/10/09 16:12:21;;;;;;;;;;;;;;;;;;;;;
2021/10/09 16:15:40;;;;;;;9.75;2.00;;;14.40;91.50;;;;;;4266493;33;20094;-67
2021/10/09 16:25:50;;;;;;;1.42;0.85;;;13.90;95.90;;;;;;4276983;33;20077;-69
2021/10/09 16:29:24;;;;;;;;;;;;;;;;;;;;;
2021/10/09 16:39:18;;;;;;;0.57;0.57;;;13.20;98.10;;;;;;4293149;33;20060;-71
2021/10/09 16:42:11;;;;;;;1.55;0.50;;;13.20;97.80;;;;;;4283314;33;20591;-70
2021/10/09 16:55:42;;;;;;;4.25;0.50;;;12.60;98.70;;;;;;4284318;33;20092;-70
2021/10/09 16:59:03;;;;;;;0.40;0.40;;;12.40;99.80;;;;;;4323593;33;20542;-69
2021/10/09 17:02:12;;;;;;;0.55;0.52;;;12.30;99.90;;;;;;4328502;33;20521;-70
2021/10/09 17:04:59;;;;;;;2.90;1.65;;;12.20;99.90;;;;;;4369117;32;20117;-71
2021/10/09 17:07:25;;;;;;;0.73;0.68;;;12.00;99.90;;;;;;4403081;32;20741;-70
2021/10/09 17:09:55;;;;;;;0.65;0.65;;;12.00;99.90;;;;;;4403465;32;20070;-70
2021/10/09 17:12:22;;;;;;;1.67;0.80;;;12.00;99.90;;;;;;4401926;32;20074;-69
2021/10/09 17:14:48;;;;;;;0.52;0.52;;;12.00;99.90;;;;;;4400537;32;20070;-69
2021/10/09 17:17:19;;;;;;;0.50;0.50;;;11.90;99.90;;;;;;4400449;32;20074;-69
2021/10/09 17:19:45;;;;;;;0.65;0.60;;;11.90;99.90;;;;;;4400795;32;20135;-69
2021/10/09 17:22:10;;;;;;;0.70;0.70;;;12.10;99.90;;;;;;4400911;32;20085;-69
2021/10/09 17:24:36;;;;;;;1.12;1.00;;;12.10;99.80;;;;;;4400486;32;20190;-69
2021/10/09 17:27:02;;;;;;;0.40;0.40;;;12.20;99.80;;;;;;4403710;32;20128;-69
2021/10/09 17:29:27;;;;;;;27.98;0.68;;;12.20;99.40;;;;;;4404397;32;20559;-69
2021/10/09 17:31:53;;;;;;;0.65;0.65;;;12.20;99.50;;;;;;4415463;32;20374;-69
2021/10/09 17:34:18;;;;;;;0.70;0.65;;;12.10;99.30;;;;;;4415203;32;20507;-69
2021/10/09 17:36:44;;;;;;;1.17;0.90;;;12.10;99.60;;;;;;4409951;32;20129;-69
2021/10/09 17:39:09;;;;;;;2.12;0.80;;;12.20;99.30;;;;;;4399688;32;20066;-69
2021/10/09 17:41:35;;;;;;;0.37;0.37;;;12.10;99.90;;;;;;4400046;32;20077;-69
2021/10/09 17:44:00;;;;;;;0.95;0.70;;;12.10;99.70;;;;;;4400235;32;20533;-69
2021/10/09 17:46:27;;;;;;;0.70;0.70;;;12.10;99.90;;;;;;4399850;32;20564;-69
2021/10/09 17:48:52;;;;;;;0.70;0.70;;;12.00;99.90;;;;;;4399641;32;20082;-69
2021/10/09 17:51:30;;;;;;;0.68;0.68;;;12.00;99.90;;;;;;4399922;32;20074;-69
2021/10/09 17:53:55;;;;;;;0.50;0.50;;;12.00;99.90;;;;;;4399971;32;20091;-69
2021/10/09 17:56:21;;;;;;;0.62;0.60;;;11.90;99.90;;;;;;4400068;32;20066;-69
2021/10/09 17:58:46;;;;;;;0.47;0.47;;;11.90;99.90;;;;;;4399421;32;20074;-69
2021/10/09 18:01:13;;;;;;;0.60;0.60;;;11.80;99.90;;;;;;4400003;32;20070;-69
2021/10/09 18:03:39;;;;;;;5.55;0.68;;;11.70;99.90;;;;;;4405469;32;20070;-69
2021/10/09 18:06:04;;;;;;;0.40;0.40;;;11.60;99.90;;;;;;4415175;32;20511;-69
2021/10/09 18:08:30;;;;;;;0.55;0.55;;;11.50;99.90;;;;;;4413836;32;20420;-69
2021/10/09 18:10:57;;;;;;;0.40;0.40;;;11.50;99.90;;;;;;4414728;32;20070;-69
2021/10/09 18:13:22;;;;;;;2.72;1.48;;;11.30;99.90;;;;;;4414469;32;20129;-69
2021/10/09 18:15:48;;;;;;;0.88;0.88;;;11.20;99.90;;;;;;4414350;32;20086;-69
2021/10/09 18:18:15;;;;;;;1.33;1.05;;;11.10;99.90;;;;;;4414962;32;20070;-69
2021/10/09 18:20:41;;;;;;;0.65;0.55;;;11.00;99.90;;;;;;4414255;32;20133;-69
2021/10/09 18:23:07;;;;;;;0.32;0.32;;;10.90;99.90;;;;;;4414761;32;20074;-69
2021/10/09 18:25:32;;;;;;;0.65;0.65;;;10.90;99.90;;;;;;4414909;32;20222;-69
2021/10/09 18:27:59;;;;;;;4.72;0.98;;;10.90;99.90;;;;;;4413690;32;20075;-69
2021/10/09 18:30:25;;;;;;;1.58;0.70;;;10.80;99.90;;;;;;4414928;32;20082;-69
2021/10/09 18:32:50;;;;;;;3.92;1.52;;;10.80;99.90;;;;;;4414673;32;20444;-69
2021/10/09 18:35:17;;;;;;;2.53;1.85;;;10.70;99.90;;;;;;4414890;32;20121;-69
2021/10/09 18:37:42;;;;;;;1.73;1.15;;;10.70;99.90;;;;;;4403082;32;20164;-69
2021/10/09 18:40:08;;;;;;;0.68;0.68;;;10.70;99.90;;;;;;4397743;32;20074;-69
2021/10/09 18:42:36;;;;;;;0.85;0.85;;;10.60;99.90;;;;;;4399417;32;20118;-69
2021/10/09 18:45:02;;;;;;;0.65;0.65;;;10.70;99.90;;;;;;4399389;32;20062;-69
2021/10/09 18:47:27;;;;;;;1.25;0.50;;;10.80;99.90;;;;;;4399212;32;20117;-69
2021/10/09 18:49:53;;;;;;;0.55;0.50;;;10.90;99.90;;;;;;4397971;32;20090;-70
2021/10/09 18:52:18;;;;;;;0.30;0.30;;;11.00;99.90;;;;;;4399386;32;20511;-69
2021/10/09 18:54:44;;;;;;;0.55;0.55;;;11.00;99.90;;;;;;4399332;32;20125;-69
2021/10/09 18:57:09;;;;;;;1.48;0.62;;;11.00;99.90;;;;;;4398734;32;20558;-68
2021/10/09 18:59:43;;;;;;;1.60;0.88;;;10.90;99.90;;;;;;4399092;32;20405;-69
2021/10/09 19:02:09;;;;;;;1.75;0.70;;;10.90;99.90;;;;;;4398993;32;20057;-70
2021/10/09 19:05:28;;;;;;;1.95;0.80;;;11.00;99.90;;;;;;4399467;32;20090;-69
2021/10/09 19:08:27;;;;;;;5.10;0.82;;;11.00;99.90;;;;;;4384483;32;20082;-68
2021/10/09 19:11:36;;;;;;;0.73;0.73;;;11.00;99.90;;;;;;4368082;32;20074;-71
2021/10/09 19:14:58;;;;;;;;;;;;;;;;;;;;;
2021/10/09 19:18:14;;;;;;;1.70;1.02;;;11.00;99.90;;;;;;4346888;32;20082;-70
2021/10/09 20:00:00;;;;;;;1.35;0.80;;;10.70;99.90;;;;;;4307612;33;20299;-68
2021/10/09 20:12:55;;;;;;;0.47;0.47;;;10.20;99.90;;;;;;4294544;33;20142;-68
2021/10/09 20:32:38;;;;;;;3.47;1.55;;;9.70;99.90;;;;;;4224792;33;20094;-69
2021/10/09 21:13:05;;;;;;;1.00;0.90;;;8.90;99.90;;;;;;4240403;33;20089;-69
2021/10/09 21:22:48;;;;;;;;;;;;;;;;;;;;;
2021/10/09 21:27:07;;;;;;;;;;;;;;;;;;;;;
2021/10/09 21:29:44;;;;;;;;;;;;;;;;;;;;;
2021/10/09 21:32:44;;;;;;;1.42;1.00;;;9.20;99.90;;;;;;4289949;33;20100;-69
2021/10/09 21:40:00;;;;;;;;;;;;;;;;;;;;;
2021/10/09 21:42:54;;;;;;;3.40;1.37;;;9.10;99.90;;;;;;4293437;33;20069;-68
2021/10/09 22:22:56;;;;;;;;;;;;;;;;;;;;;
2021/10/09 22:32:27;;;;;;;0.52;0.52;;;8.70;99.90;;;;;;4380632;32;20545;-69
2021/10/09 22:38:07;;;;;;;;;;;;;;;;;;;;;
2021/10/09 22:47:46;;;;;;;;;;;8.50;99.90;;;;;;4324978;33;20193;-69
2021/10/09 23:07:50;;;;;;;11.10;2.35;;;8.30;99.90;;;;;;4280066;33;20068;-68
2021/10/09 23:10:52;;;;;;;;;;;;;;;;;;;;;
2021/10/09 23:14:19;;;;;;;2.62;1.45;;;8.20;99.90;;;;;;4298775;33;20462;-68
2021/10/09 23:46:46;;;;;;;1.00;0.88;;;7.90;99.90;;;;;;4337972;33;20082;-69
2021/10/09 23:53:28;;;;;;;2.62;1.45;;;7.90;99.90;;;;;;4367592;32;20510;-69
